createdAt,value
2018-07-30T00:00:01.475Z,1009.34
2018-07-30T00:01:01.511Z,1009.36
2018-07-30T00:02:01.474Z,1009.36
2018-07-30T00:03:01.492Z,1009.39
2018-07-30T00:04:01.512Z,1009.37
2018-07-30T00:05:01.693Z,1009.35
2018-07-30T00:06:01.499Z,1009.36
2018-07-30T00:07:01.521Z,1009.35
2018-07-30T00:08:01.512Z,1009.35
2018-07-30T00:09:01.532Z,1009.39
2018-07-30T00:10:01.727Z,1009.40
2018-07-30T00:11:01.745Z,1009.40
2018-07-30T00:12:01.741Z,1009.37
2018-07-30T00:13:01.771Z,1009.35
2018-07-30T00:14:01.564Z,1009.37
2018-07-30T00:15:01.556Z,1009.35
2018-07-30T00:16:01.784Z,1009.36
2018-07-30T00:17:01.781Z,1009.34
2018-07-30T00:18:01.793Z,1009.34
2018-07-30T00:19:01.579Z,1009.37
2018-07-30T00:20:01.790Z,1009.39
2018-07-30T00:21:01.602Z,1009.35
2018-07-30T00:22:01.811Z,1009.37
2018-07-30T00:23:01.811Z,1009.38
2018-07-30T00:24:01.627Z,1009.36
2018-07-30T00:25:01.620Z,1009.36
2018-07-30T00:26:01.627Z,1009.36
2018-07-30T00:27:01.832Z,1009.37
2018-07-30T00:28:01.652Z,1009.29
2018-07-30T00:29:01.645Z,1009.33
2018-07-30T00:30:01.666Z,1009.32
2018-07-30T00:31:01.892Z,1009.32
2018-07-30T00:32:01.865Z,1009.31
2018-07-30T00:33:01.873Z,1009.36
2018-07-30T00:34:01.678Z,1009.34
2018-07-30T00:35:01.684Z,1009.33
2018-07-30T00:36:01.686Z,1009.38
2018-07-30T00:37:01.698Z,1009.39
2018-07-30T00:38:01.699Z,1009.36
2018-07-30T00:39:01.909Z,1009.39
2018-07-30T00:40:01.714Z,1009.40
2018-07-30T00:41:01.717Z,1009.42
2018-07-30T00:42:01.735Z,1009.39
2018-07-30T00:43:01.745Z,1009.38
2018-07-30T00:44:01.739Z,1009.39
2018-07-30T00:45:01.758Z,1009.37
2018-07-30T00:46:01.750Z,1009.37
2018-07-30T00:47:01.768Z,1009.38
2018-07-30T00:48:01.772Z,1009.39
2018-07-30T00:49:01.767Z,1009.45
2018-07-30T00:50:01.776Z,1009.43
2018-07-30T00:51:01.832Z,1009.45
2018-07-30T00:52:01.803Z,1009.45
2018-07-30T00:53:01.807Z,1009.44
2018-07-30T00:54:01.800Z,1009.44
2018-07-30T00:55:01.835Z,1009.46
2018-07-30T00:56:01.830Z,1009.48
2018-07-30T00:57:01.817Z,1009.46
2018-07-30T00:58:01.821Z,1009.47
2018-07-30T00:59:02.037Z,1009.46
2018-07-30T01:00:01.850Z,1009.47
2018-07-30T01:01:01.889Z,1009.47
2018-07-30T01:02:01.862Z,1009.46
2018-07-30T01:03:01.857Z,1009.50
2018-07-30T01:04:01.876Z,1009.49
2018-07-30T01:05:01.876Z,1009.49
2018-07-30T01:06:01.871Z,1009.52
2018-07-30T01:07:02.084Z,1009.54
2018-07-30T01:08:01.883Z,1009.54
2018-07-30T01:09:01.891Z,1009.53
2018-07-30T01:10:01.895Z,1009.52
2018-07-30T01:11:01.902Z,1009.54
2018-07-30T01:12:02.110Z,1009.54
2018-07-30T01:13:02.115Z,1009.53
2018-07-30T01:14:01.922Z,1009.52
2018-07-30T01:15:02.127Z,1009.53
2018-07-30T01:16:02.134Z,1009.51
2018-07-30T01:17:02.142Z,1009.52
2018-07-30T01:18:01.944Z,1009.50
2018-07-30T01:19:01.950Z,1009.50
2018-07-30T01:20:01.969Z,1009.50
2018-07-30T01:21:01.966Z,1009.54
2018-07-30T01:22:02.170Z,1009.55
2018-07-30T01:23:01.972Z,1009.58
2018-07-30T01:24:02.005Z,1009.56
2018-07-30T01:25:01.998Z,1009.60
2018-07-30T01:26:02.007Z,1009.64
2018-07-30T01:27:02.201Z,1009.64
2018-07-30T01:28:02.014Z,1009.65
2018-07-30T01:29:02.020Z,1009.62
2018-07-30T01:30:02.045Z,1009.65
2018-07-30T01:31:02.048Z,1009.64
2018-07-30T01:32:02.028Z,1009.64
2018-07-30T01:33:02.045Z,1009.60
2018-07-30T01:34:02.049Z,1009.59
2018-07-30T01:35:02.044Z,1009.61
2018-07-30T01:36:02.063Z,1009.60
2018-07-30T01:37:02.260Z,1009.58
2018-07-30T01:38:02.062Z,1009.61
2018-07-30T01:39:02.094Z,1009.59
2018-07-30T01:40:02.087Z,1009.59
2018-07-30T01:41:02.079Z,1009.60
2018-07-30T01:42:02.093Z,1009.58
2018-07-30T01:43:02.111Z,1009.59
2018-07-30T01:44:02.115Z,1009.60
2018-07-30T01:45:02.099Z,1009.60
2018-07-30T01:46:02.107Z,1009.60
2018-07-30T01:47:02.111Z,1009.62
2018-07-30T01:48:02.133Z,1009.60
2018-07-30T01:49:02.120Z,1009.61
2018-07-30T01:50:02.342Z,1009.63
2018-07-30T01:51:02.353Z,1009.63
2018-07-30T01:52:02.153Z,1009.63
2018-07-30T01:53:02.156Z,1009.61
2018-07-30T01:54:02.162Z,1009.62
2018-07-30T01:55:02.154Z,1009.61
2018-07-30T01:56:02.158Z,1009.63
2018-07-30T01:57:02.165Z,1009.61
2018-07-30T01:58:02.183Z,1009.62
2018-07-30T01:59:02.178Z,1009.62
2018-07-30T02:00:02.186Z,1009.65
2018-07-30T02:01:02.196Z,1009.62
2018-07-30T02:02:02.412Z,1009.63
2018-07-30T02:03:02.198Z,1009.63
2018-07-30T02:04:02.217Z,1009.65
2018-07-30T02:05:02.208Z,1009.64
2018-07-30T02:06:02.432Z,1009.62
2018-07-30T02:07:02.247Z,1009.64
2018-07-30T02:08:02.239Z,1009.65
2018-07-30T02:09:02.243Z,1009.60
2018-07-30T02:10:02.441Z,1009.65
2018-07-30T02:11:02.253Z,1009.65
2018-07-30T02:12:02.244Z,1009.65
2018-07-30T02:13:02.251Z,1009.65
2018-07-30T02:14:02.459Z,1009.61
2018-07-30T02:15:02.271Z,1009.62
2018-07-30T02:16:02.471Z,1009.63
2018-07-30T02:17:02.475Z,1009.66
2018-07-30T02:18:02.278Z,1009.66
2018-07-30T02:19:02.283Z,1009.66
2018-07-30T02:20:02.286Z,1009.63
2018-07-30T02:21:02.290Z,1009.61
2018-07-30T02:22:02.310Z,1009.63
2018-07-30T02:23:02.316Z,1009.61
2018-07-30T02:24:02.308Z,1009.65
2018-07-30T02:25:02.339Z,1009.62
2018-07-30T02:26:02.336Z,1009.63
2018-07-30T02:27:02.537Z,1009.64
2018-07-30T02:28:02.331Z,1009.64
2018-07-30T02:29:02.351Z,1009.65
2018-07-30T02:30:02.361Z,1009.66
2018-07-30T02:31:02.364Z,1009.68
2018-07-30T02:32:02.348Z,1009.68
2018-07-30T02:33:02.363Z,1009.68
2018-07-30T02:34:02.370Z,1009.69
2018-07-30T02:35:02.363Z,1009.66
2018-07-30T02:36:02.581Z,1009.68
2018-07-30T02:37:02.374Z,1009.70
2018-07-30T02:38:02.395Z,1009.68
2018-07-30T02:39:02.586Z,1009.69
2018-07-30T02:40:02.387Z,1009.71
2018-07-30T02:41:02.403Z,1009.68
2018-07-30T02:42:02.396Z,1009.72
2018-07-30T02:43:02.417Z,1009.71
2018-07-30T02:44:02.623Z,1009.70
2018-07-30T02:45:02.410Z,1009.71
2018-07-30T02:46:02.617Z,1009.71
2018-07-30T02:47:02.420Z,1009.71
2018-07-30T02:48:02.629Z,1009.71
2018-07-30T02:49:02.434Z,1009.76
2018-07-30T02:50:02.435Z,1009.72
2018-07-30T02:51:02.455Z,1009.75
2018-07-30T02:52:02.446Z,1009.74
2018-07-30T02:53:02.479Z,1009.78
2018-07-30T02:54:02.455Z,1009.78
2018-07-30T02:55:02.472Z,1009.78
2018-07-30T02:56:02.466Z,1009.72
2018-07-30T02:57:02.468Z,1009.79
2018-07-30T02:58:02.681Z,1009.80
2018-07-30T02:59:02.682Z,1009.80
2018-07-30T03:00:02.484Z,1009.79
2018-07-30T03:01:02.689Z,1009.77
2018-07-30T03:02:02.492Z,1009.76
2018-07-30T03:03:02.699Z,1009.73
2018-07-30T03:04:02.503Z,1009.71
2018-07-30T03:05:02.504Z,1009.73
2018-07-30T03:06:02.532Z,1009.72
2018-07-30T03:07:02.515Z,1009.73
2018-07-30T03:08:02.520Z,1009.70
2018-07-30T03:09:02.524Z,1009.74
2018-07-30T03:10:02.529Z,1009.76
2018-07-30T03:11:02.534Z,1009.77
2018-07-30T03:12:02.543Z,1009.76
2018-07-30T03:13:02.546Z,1009.81
2018-07-30T03:14:02.557Z,1009.82
2018-07-30T03:15:02.557Z,1009.80
2018-07-30T03:16:02.765Z,1009.85
2018-07-30T03:17:02.565Z,1009.86
2018-07-30T03:18:02.568Z,1009.86
2018-07-30T03:19:02.610Z,1009.87
2018-07-30T03:20:02.812Z,1009.90
2018-07-30T03:21:02.582Z,1009.90
2018-07-30T03:22:02.586Z,1009.94
2018-07-30T03:23:02.593Z,1009.98
2018-07-30T03:24:02.801Z,1009.96
2018-07-30T03:25:02.611Z,1009.93
2018-07-30T03:26:02.625Z,1009.92
2018-07-30T03:27:02.610Z,1009.97
2018-07-30T03:28:02.846Z,1009.93
2018-07-30T03:29:02.621Z,1009.93
2018-07-30T03:30:02.638Z,1009.96
2018-07-30T03:31:02.629Z,1009.97
2018-07-30T03:32:02.641Z,1010.02
2018-07-30T03:33:02.654Z,1010.06
2018-07-30T03:34:02.661Z,1010.02
2018-07-30T03:35:02.850Z,1010.04
2018-07-30T03:36:02.664Z,1010.01
2018-07-30T03:37:02.668Z,1010.02
2018-07-30T03:38:02.667Z,1010.08
2018-07-30T03:39:02.869Z,1010.09
2018-07-30T03:40:02.671Z,1010.08
2018-07-30T03:41:02.676Z,1010.12
2018-07-30T03:42:02.711Z,1010.13
2018-07-30T03:43:02.888Z,1010.13
2018-07-30T03:44:02.692Z,1010.10
2018-07-30T03:45:02.694Z,1010.11
2018-07-30T03:46:02.697Z,1010.09
2018-07-30T03:47:02.905Z,1010.11
2018-07-30T03:48:02.783Z,1010.10
2018-07-30T03:49:02.717Z,1010.10
2018-07-30T03:50:02.731Z,1010.11
2018-07-30T03:51:02.743Z,1010.09
2018-07-30T03:52:02.746Z,1010.13
2018-07-30T03:53:02.932Z,1010.14
2018-07-30T03:54:02.747Z,1010.09
2018-07-30T03:55:02.742Z,1010.17
2018-07-30T03:56:02.746Z,1010.14
2018-07-30T03:57:02.751Z,1010.18
2018-07-30T03:58:02.835Z,1010.15
2018-07-30T03:59:02.761Z,1010.16
2018-07-30T04:00:03.022Z,1010.18
2018-07-30T04:01:02.796Z,1010.17
2018-07-30T04:02:02.785Z,1010.21
2018-07-30T04:03:02.776Z,1010.17
2018-07-30T04:04:02.780Z,1010.23
2018-07-30T04:05:02.998Z,1010.18
2018-07-30T04:06:02.845Z,1010.19
2018-07-30T04:07:02.814Z,1010.15
2018-07-30T04:08:03.031Z,1010.18
2018-07-30T04:09:02.809Z,1010.15
2018-07-30T04:10:02.805Z,1010.17
2018-07-30T04:11:02.812Z,1010.14
2018-07-30T04:12:02.816Z,1010.19
2018-07-30T04:13:02.821Z,1010.16
2018-07-30T04:14:02.827Z,1010.14
2018-07-30T04:15:02.833Z,1010.16
2018-07-30T04:16:02.850Z,1010.17
2018-07-30T04:17:02.850Z,1010.18
2018-07-30T04:18:02.843Z,1010.21
2018-07-30T04:19:02.882Z,1010.21
2018-07-30T04:20:02.855Z,1010.23
2018-07-30T04:21:02.866Z,1010.21
2018-07-30T04:22:02.897Z,1010.22
2018-07-30T04:23:03.077Z,1010.25
2018-07-30T04:24:03.128Z,1010.27
2018-07-30T04:25:03.096Z,1010.24
2018-07-30T04:26:02.892Z,1010.24
2018-07-30T04:27:03.084Z,1010.21
2018-07-30T04:28:02.915Z,1010.24
2018-07-30T04:29:02.892Z,1010.24
2018-07-30T04:30:02.896Z,1010.22
2018-07-30T04:31:02.900Z,1010.23
2018-07-30T04:32:03.109Z,1010.24
2018-07-30T04:33:02.909Z,1010.24
2018-07-30T04:34:02.952Z,1010.22
2018-07-30T04:35:02.932Z,1010.24
2018-07-30T04:36:02.931Z,1010.25
2018-07-30T04:37:02.925Z,1010.26
2018-07-30T04:38:03.134Z,1010.27
2018-07-30T04:39:02.949Z,1010.28
2018-07-30T04:40:02.940Z,1010.30
2018-07-30T04:41:02.956Z,1010.27
2018-07-30T04:42:02.949Z,1010.27
2018-07-30T04:43:02.950Z,1010.30
2018-07-30T04:44:03.169Z,1010.25
2018-07-30T04:45:02.961Z,1010.28
2018-07-30T04:46:02.964Z,1010.29
2018-07-30T04:47:02.971Z,1010.27
2018-07-30T04:48:03.186Z,1010.28
2018-07-30T04:49:03.008Z,1010.32
2018-07-30T04:50:02.981Z,1010.29
2018-07-30T04:51:03.200Z,1010.31
2018-07-30T04:52:03.019Z,1010.34
2018-07-30T04:53:03.201Z,1010.28
2018-07-30T04:54:03.030Z,1010.33
2018-07-30T04:55:03.208Z,1010.33
2018-07-30T04:56:03.215Z,1010.31
2018-07-30T04:57:03.084Z,1010.36
2018-07-30T04:58:03.235Z,1010.31
2018-07-30T04:59:03.023Z,1010.33
2018-07-30T05:00:03.031Z,1010.33
2018-07-30T05:01:03.232Z,1010.32
2018-07-30T05:02:03.036Z,1010.35
2018-07-30T05:03:03.041Z,1010.35
2018-07-30T05:04:03.049Z,1010.34
2018-07-30T05:05:03.070Z,1010.34
2018-07-30T05:06:03.072Z,1010.35
2018-07-30T05:07:03.091Z,1010.31
2018-07-30T05:08:03.092Z,1010.32
2018-07-30T05:09:03.109Z,1010.33
2018-07-30T05:10:03.249Z,1010.32
2018-07-30T05:11:03.096Z,1010.40
2018-07-30T05:12:03.338Z,1010.39
2018-07-30T05:13:03.088Z,1010.38
2018-07-30T05:14:03.136Z,1010.41
2018-07-30T05:15:03.113Z,1010.42
2018-07-30T05:16:03.118Z,1010.45
2018-07-30T05:17:03.129Z,1010.46
2018-07-30T05:18:03.143Z,1010.47
2018-07-30T05:19:03.129Z,1010.46
2018-07-30T05:20:03.132Z,1010.46
2018-07-30T05:21:03.126Z,1010.44
2018-07-30T05:22:03.169Z,1010.46
2018-07-30T05:23:03.156Z,1010.43
2018-07-30T05:24:03.150Z,1010.47
2018-07-30T05:25:03.171Z,1010.44
2018-07-30T05:26:03.164Z,1010.47
2018-07-30T05:27:03.174Z,1010.46
2018-07-30T05:28:03.189Z,1010.45
2018-07-30T05:29:03.176Z,1010.45
2018-07-30T05:30:03.182Z,1010.48
2018-07-30T05:31:03.177Z,1010.48
2018-07-30T05:32:03.184Z,1010.52
2018-07-30T05:33:03.201Z,1010.51
2018-07-30T05:34:03.192Z,1010.49
2018-07-30T05:35:03.202Z,1010.48
2018-07-30T05:36:03.226Z,1010.49
2018-07-30T05:37:03.305Z,1010.48
2018-07-30T05:38:03.220Z,1010.48
2018-07-30T05:39:03.276Z,1010.51
2018-07-30T05:40:03.233Z,1010.47
2018-07-30T05:41:03.255Z,1010.46
2018-07-30T05:42:03.275Z,1010.46
2018-07-30T05:43:03.281Z,1010.49
2018-07-30T05:44:03.297Z,1010.47
2018-07-30T05:45:03.275Z,1010.44
2018-07-30T05:46:03.286Z,1010.42
2018-07-30T05:47:03.282Z,1010.41
2018-07-30T05:48:03.294Z,1010.41
2018-07-30T05:49:03.316Z,1010.40
2018-07-30T05:50:03.361Z,1010.44
2018-07-30T05:51:03.299Z,1010.43
2018-07-30T05:52:03.316Z,1010.42
2018-07-30T05:53:03.315Z,1010.45
2018-07-30T05:54:03.295Z,1010.46
2018-07-30T05:55:03.532Z,1010.46
2018-07-30T05:56:03.339Z,1010.48
2018-07-30T05:57:03.322Z,1010.45
2018-07-30T05:58:03.331Z,1010.53
2018-07-30T05:59:03.336Z,1010.51
2018-07-30T06:00:03.347Z,1010.53
2018-07-30T06:01:03.553Z,1010.57
2018-07-30T06:02:03.344Z,1010.57
2018-07-30T06:03:03.367Z,1010.58
2018-07-30T06:04:03.363Z,1010.57
2018-07-30T06:05:03.561Z,1010.55
2018-07-30T06:06:03.362Z,1010.57
2018-07-30T06:07:03.368Z,1010.57
2018-07-30T06:08:03.379Z,1010.57
2018-07-30T06:09:03.380Z,1010.57
2018-07-30T06:10:03.387Z,1010.58
2018-07-30T06:11:03.595Z,1010.56
2018-07-30T06:12:03.399Z,1010.58
2018-07-30T06:13:03.413Z,1010.57
2018-07-30T06:14:03.422Z,1010.56
2018-07-30T06:15:03.416Z,1010.57
2018-07-30T06:16:03.429Z,1010.54
2018-07-30T06:17:03.451Z,1010.54
2018-07-30T06:18:03.433Z,1010.53
2018-07-30T06:19:03.642Z,1010.53
2018-07-30T06:20:03.445Z,1010.57
2018-07-30T06:21:03.469Z,1010.57
2018-07-30T06:22:03.468Z,1010.55
2018-07-30T06:23:03.471Z,1010.57
2018-07-30T06:24:03.480Z,1010.57
2018-07-30T06:25:03.490Z,1010.57
2018-07-30T06:26:03.505Z,1010.58
2018-07-30T06:27:03.502Z,1010.59
2018-07-30T06:28:03.513Z,1010.61
2018-07-30T06:29:03.499Z,1010.63
2018-07-30T06:30:03.508Z,1010.65
2018-07-30T06:31:03.512Z,1010.66
2018-07-30T06:32:03.586Z,1010.66
2018-07-30T06:33:03.536Z,1010.67
2018-07-30T06:34:03.527Z,1010.66
2018-07-30T06:35:03.748Z,1010.62
2018-07-30T06:36:03.556Z,1010.63
2018-07-30T06:37:03.574Z,1010.62
2018-07-30T06:38:03.767Z,1010.60
2018-07-30T06:39:03.574Z,1010.63
2018-07-30T06:40:03.769Z,1010.67
2018-07-30T06:41:03.581Z,1010.64
2018-07-30T06:42:03.590Z,1010.65
2018-07-30T06:43:03.585Z,1010.65
2018-07-30T06:44:03.809Z,1010.67
2018-07-30T06:45:03.801Z,1010.66
2018-07-30T06:46:03.644Z,1010.64
2018-07-30T06:47:03.612Z,1010.70
2018-07-30T06:48:03.652Z,1010.70
2018-07-30T06:49:03.641Z,1010.69
2018-07-30T06:50:03.629Z,1010.68
2018-07-30T06:51:03.647Z,1010.73
2018-07-30T06:52:03.658Z,1010.73
2018-07-30T06:53:03.650Z,1010.74
2018-07-30T06:54:03.660Z,1010.75
2018-07-30T06:55:03.665Z,1010.77
2018-07-30T06:56:03.682Z,1010.78
2018-07-30T06:57:03.674Z,1010.76
2018-07-30T06:58:03.692Z,1010.78
2018-07-30T06:59:03.688Z,1010.78
2018-07-30T07:00:03.699Z,1010.77
2018-07-30T07:01:03.700Z,1010.80
2018-07-30T07:02:03.743Z,1010.80
2018-07-30T07:03:03.713Z,1010.86
2018-07-30T07:04:03.720Z,1010.85
2018-07-30T07:05:03.739Z,1010.84
2018-07-30T07:06:03.952Z,1010.83
2018-07-30T07:07:03.757Z,1010.83
2018-07-30T07:08:03.747Z,1010.81
2018-07-30T07:09:03.765Z,1010.86
2018-07-30T07:10:03.779Z,1010.83
2018-07-30T07:11:03.764Z,1010.84
2018-07-30T07:12:03.977Z,1010.88
2018-07-30T07:13:03.777Z,1010.87
2018-07-30T07:14:03.796Z,1010.91
2018-07-30T07:15:03.993Z,1010.91
2018-07-30T07:16:04.002Z,1010.89
2018-07-30T07:17:03.818Z,1010.91
2018-07-30T07:18:03.812Z,1010.96
2018-07-30T07:19:03.826Z,1010.92
2018-07-30T07:20:03.840Z,1010.93
2018-07-30T07:21:04.045Z,1010.95
2018-07-30T07:22:04.130Z,1010.94
2018-07-30T07:23:04.070Z,1010.97
2018-07-30T07:24:03.848Z,1010.98
2018-07-30T07:25:03.869Z,1010.97
2018-07-30T07:26:03.864Z,1010.97
2018-07-30T07:27:03.900Z,1010.97
2018-07-30T07:28:03.925Z,1010.94
2018-07-30T07:29:03.883Z,1010.94
2018-07-30T07:30:03.899Z,1011.00
2018-07-30T07:31:03.925Z,1011.03
2018-07-30T07:32:03.901Z,1011.02
2018-07-30T07:33:03.907Z,1010.94
2018-07-30T07:34:03.911Z,1010.95
2018-07-30T07:35:03.951Z,1010.97
2018-07-30T07:36:03.944Z,1010.98
2018-07-30T07:37:03.944Z,1010.95
2018-07-30T07:38:03.939Z,1010.96
2018-07-30T07:39:03.947Z,1010.95
2018-07-30T07:40:03.970Z,1010.95
2018-07-30T07:41:03.960Z,1010.96
2018-07-30T07:42:04.022Z,1010.97
2018-07-30T07:43:03.976Z,1010.95
2018-07-30T07:44:03.979Z,1010.93
2018-07-30T07:45:04.081Z,1010.94
2018-07-30T07:46:04.198Z,1010.98
2018-07-30T07:47:04.010Z,1010.95
2018-07-30T07:48:04.007Z,1011.00
2018-07-30T07:49:04.029Z,1010.94
2018-07-30T07:50:04.039Z,1010.94
2018-07-30T07:51:04.146Z,1010.92
2018-07-30T07:52:04.246Z,1010.89
2018-07-30T07:53:04.052Z,1010.92
2018-07-30T07:54:04.048Z,1010.91
2018-07-30T07:55:04.099Z,1010.93
2018-07-30T07:56:04.065Z,1010.92
2018-07-30T07:57:04.078Z,1010.94
2018-07-30T07:58:04.075Z,1010.91
2018-07-30T07:59:04.087Z,1010.86
2018-07-30T08:00:04.128Z,1010.89
2018-07-30T08:01:04.104Z,1010.86
2018-07-30T08:02:04.317Z,1010.88
2018-07-30T08:03:04.122Z,1010.90
2018-07-30T08:04:04.142Z,1010.89
2018-07-30T08:05:04.368Z,1010.91
2018-07-30T08:06:04.129Z,1010.91
2018-07-30T08:07:04.135Z,1010.90
2018-07-30T08:08:04.153Z,1010.90
2018-07-30T08:09:04.180Z,1010.94
2018-07-30T08:10:04.171Z,1010.91
2018-07-30T08:11:04.243Z,1010.91
2018-07-30T08:12:04.170Z,1010.91
2018-07-30T08:13:04.177Z,1010.90
2018-07-30T08:14:04.184Z,1010.86
2018-07-30T08:15:04.192Z,1010.88
2018-07-30T08:16:04.215Z,1010.88
2018-07-30T08:17:04.217Z,1010.89
2018-07-30T08:18:04.413Z,1010.85
2018-07-30T08:19:04.219Z,1010.86
2018-07-30T08:20:04.237Z,1010.87
2018-07-30T08:21:04.230Z,1010.95
2018-07-30T08:22:04.240Z,1010.90
2018-07-30T08:23:04.245Z,1010.89
2018-07-30T08:24:04.252Z,1010.89
2018-07-30T08:25:04.259Z,1010.88
2018-07-30T08:26:04.266Z,1010.96
2018-07-30T08:27:04.284Z,1010.92
2018-07-30T08:28:04.480Z,1010.87
2018-07-30T08:29:04.523Z,1010.91
2018-07-30T08:30:04.298Z,1010.90
2018-07-30T08:31:04.303Z,1010.89
2018-07-30T08:32:04.310Z,1010.91
2018-07-30T08:33:04.341Z,1010.91
2018-07-30T08:34:04.323Z,1010.93
2018-07-30T08:35:04.357Z,1010.92
2018-07-30T08:36:04.551Z,1011.04
2018-07-30T08:37:04.352Z,1011.05
2018-07-30T08:38:04.349Z,1011.02
2018-07-30T08:39:04.360Z,1011.36
2018-07-30T08:40:04.364Z,1011.07
2018-07-30T08:41:04.370Z,1011.09
2018-07-30T08:42:04.378Z,1011.17
2018-07-30T08:43:04.403Z,1011.11
2018-07-30T08:44:04.393Z,1011.13
2018-07-30T08:45:04.606Z,1011.12
2018-07-30T08:46:04.409Z,1011.11
2018-07-30T08:47:04.417Z,1011.10
2018-07-30T08:48:04.423Z,1011.11
2018-07-30T08:49:04.428Z,1011.10
2018-07-30T08:50:04.461Z,1011.08
2018-07-30T08:51:04.455Z,1011.07
2018-07-30T08:52:04.451Z,1011.05
2018-07-30T08:53:04.458Z,1011.05
2018-07-30T08:54:04.466Z,1011.01
2018-07-30T08:55:04.478Z,1011.07
2018-07-30T08:56:04.480Z,1011.05
2018-07-30T08:57:04.487Z,1011.07
2018-07-30T08:58:04.494Z,1011.07
2018-07-30T08:59:04.504Z,1011.06
2018-07-30T09:00:04.524Z,1011.07
2018-07-30T09:01:04.518Z,1011.09
2018-07-30T09:02:04.524Z,1011.10
2018-07-30T09:03:04.736Z,1011.08
2018-07-30T09:04:04.551Z,1011.14
2018-07-30T09:05:04.560Z,1011.13
2018-07-30T09:06:04.553Z,1011.14
2018-07-30T09:07:04.787Z,1011.10
2018-07-30T09:08:04.774Z,1011.06
2018-07-30T09:09:04.778Z,1011.09
2018-07-30T09:10:04.783Z,1011.06
2018-07-30T09:11:04.594Z,1011.09
2018-07-30T09:12:04.800Z,1011.06
2018-07-30T09:13:04.807Z,1011.05
2018-07-30T09:14:04.654Z,1011.08
2018-07-30T09:15:04.638Z,1011.08
2018-07-30T09:16:04.638Z,1011.05
2018-07-30T09:17:04.697Z,1011.10
2018-07-30T09:18:04.680Z,1011.05
2018-07-30T09:19:04.683Z,1011.02
2018-07-30T09:20:04.868Z,1011.07
2018-07-30T09:21:04.686Z,1011.06
2018-07-30T09:22:04.678Z,1011.06
2018-07-30T09:23:04.894Z,1011.06
2018-07-30T09:24:04.697Z,1011.08
2018-07-30T09:25:04.708Z,1011.11
2018-07-30T09:26:04.723Z,1011.06
2018-07-30T09:27:04.806Z,1011.09
2018-07-30T09:28:04.744Z,1011.04
2018-07-30T09:29:04.764Z,1011.00
2018-07-30T09:30:04.782Z,1011.01
2018-07-30T09:31:04.772Z,1011.00
2018-07-30T09:32:04.756Z,1011.01
2018-07-30T09:33:04.797Z,1011.00
2018-07-30T09:34:04.788Z,1011.01
2018-07-30T09:35:04.779Z,1010.99
2018-07-30T09:36:04.994Z,1010.97
2018-07-30T09:37:04.795Z,1010.99
2018-07-30T09:38:04.802Z,1010.97
2018-07-30T09:39:05.012Z,1010.97
2018-07-30T09:40:04.826Z,1010.97
2018-07-30T09:41:04.816Z,1010.98
2018-07-30T09:42:04.828Z,1010.97
2018-07-30T09:43:04.844Z,1010.98
2018-07-30T09:44:05.058Z,1010.98
2018-07-30T09:45:04.850Z,1010.97
2018-07-30T09:46:04.866Z,1010.95
2018-07-30T09:47:04.866Z,1010.93
2018-07-30T09:48:04.887Z,1010.95
2018-07-30T09:49:04.882Z,1010.93
2018-07-30T09:50:04.908Z,1010.94
2018-07-30T09:51:04.915Z,1010.91
2018-07-30T09:52:05.109Z,1010.93
2018-07-30T09:53:04.916Z,1010.92
2018-07-30T09:54:05.118Z,1010.93
2018-07-30T09:55:04.944Z,1010.92
2018-07-30T09:56:04.936Z,1010.89
2018-07-30T09:57:04.956Z,1010.90
2018-07-30T09:59:05.150Z,1010.90
2018-07-30T10:00:04.955Z,1010.89
2018-07-30T10:01:04.972Z,1010.91
2018-07-30T10:02:04.981Z,1010.89
2018-07-30T10:03:04.990Z,1010.91
2018-07-30T10:04:04.992Z,1010.91
2018-07-30T10:05:05.004Z,1010.91
2018-07-30T10:06:05.045Z,1010.94
2018-07-30T10:07:05.028Z,1010.94
2018-07-30T10:08:05.027Z,1010.88
2018-07-30T10:09:05.235Z,1010.90
2018-07-30T10:10:05.036Z,1010.86
2018-07-30T10:11:05.050Z,1010.86
2018-07-30T10:12:05.063Z,1010.86
2018-07-30T10:13:05.066Z,1010.88
2018-07-30T10:14:05.084Z,1010.88
2018-07-30T10:15:05.078Z,1010.86
2018-07-30T10:16:05.090Z,1010.84
2018-07-30T10:17:05.097Z,1010.86
2018-07-30T10:18:05.163Z,1010.85
2018-07-30T10:19:05.127Z,1010.84
2018-07-30T10:20:05.115Z,1010.81
2018-07-30T10:21:05.331Z,1010.83
2018-07-30T10:22:05.325Z,1010.78
2018-07-30T10:23:05.136Z,1010.76
2018-07-30T10:24:05.157Z,1010.81
2018-07-30T10:25:05.139Z,1010.78
2018-07-30T10:26:05.196Z,1010.74
2018-07-30T10:27:05.177Z,1010.76
2018-07-30T10:28:05.192Z,1010.67
2018-07-30T10:29:05.201Z,1010.70
2018-07-30T10:30:05.379Z,1010.75
2018-07-30T10:31:05.190Z,1010.74
2018-07-30T10:32:05.396Z,1010.71
2018-07-30T10:33:05.201Z,1010.69
2018-07-30T10:34:05.221Z,1010.72
2018-07-30T10:35:05.236Z,1010.72
2018-07-30T10:36:05.255Z,1010.68
2018-07-30T10:37:05.231Z,1010.69
2018-07-30T10:38:05.310Z,1010.70
2018-07-30T10:39:05.269Z,1010.67
2018-07-30T10:40:05.255Z,1010.66
2018-07-30T10:41:05.279Z,1010.60
2018-07-30T10:42:05.472Z,1010.67
2018-07-30T10:43:05.479Z,1010.65
2018-07-30T10:44:05.281Z,1010.64
2018-07-30T10:45:05.492Z,1010.68
2018-07-30T10:46:05.297Z,1010.66
2018-07-30T10:47:05.305Z,1010.64
2018-07-30T10:48:05.315Z,1010.69
2018-07-30T10:49:05.334Z,1010.69
2018-07-30T10:50:05.330Z,1010.69
2018-07-30T10:51:05.545Z,1010.70
2018-07-30T10:52:05.344Z,1010.65
2018-07-30T10:53:05.350Z,1010.66
2018-07-30T10:54:05.358Z,1010.63
2018-07-30T10:55:05.368Z,1010.65
2018-07-30T10:56:05.376Z,1010.55
2018-07-30T10:57:05.382Z,1010.57
2018-07-30T10:58:31.264Z,1010.53
2018-07-30T10:59:05.404Z,1010.53
2018-07-30T11:00:05.404Z,1010.53
2018-07-30T11:01:05.461Z,1010.50
2018-07-30T11:02:05.419Z,1010.48
2018-07-30T11:03:05.440Z,1010.53
2018-07-30T11:04:05.449Z,1010.47
2018-07-30T11:05:05.445Z,1010.49
2018-07-30T11:06:05.654Z,1010.49
2018-07-30T11:07:05.468Z,1010.48
2018-07-30T11:08:05.464Z,1010.55
2018-07-30T11:09:05.476Z,1010.55
2018-07-30T11:10:05.691Z,1010.53
2018-07-30T11:11:05.509Z,1010.50
2018-07-30T11:12:05.510Z,1010.54
2018-07-30T11:13:05.527Z,1010.51
2018-07-30T11:14:05.520Z,1010.52
2018-07-30T11:15:05.521Z,1010.52
2018-07-30T11:16:05.541Z,1010.49
2018-07-30T11:17:05.548Z,1010.50
2018-07-30T11:18:05.753Z,1010.49
2018-07-30T11:19:05.772Z,1010.50
2018-07-30T11:20:05.575Z,1010.46
2018-07-30T11:21:05.588Z,1010.43
2018-07-30T11:22:05.595Z,1010.44
2018-07-30T11:23:05.593Z,1010.44
2018-07-30T11:24:05.596Z,1010.40
2018-07-30T11:25:05.594Z,1010.42
2018-07-30T11:26:05.819Z,1010.41
2018-07-30T11:27:05.814Z,1010.44
2018-07-30T11:28:05.756Z,1010.44
2018-07-30T11:29:05.627Z,1010.43
2018-07-30T11:30:05.644Z,1010.42
2018-07-30T11:31:05.657Z,1010.43
2018-07-30T11:32:05.853Z,1010.40
2018-07-30T11:33:05.659Z,1010.38
2018-07-30T11:34:05.680Z,1010.40
2018-07-30T11:35:05.682Z,1010.37
2018-07-30T11:36:05.681Z,1010.38
2018-07-30T11:37:05.689Z,1010.38
2018-07-30T11:38:05.915Z,1010.34
2018-07-30T11:39:05.703Z,1010.39
2018-07-30T11:40:05.938Z,1010.37
2018-07-30T11:41:05.721Z,1010.26
2018-07-30T11:42:05.775Z,1010.36
2018-07-30T11:43:05.735Z,1010.31
2018-07-30T11:44:05.755Z,1010.35
2018-07-30T11:45:05.760Z,1010.33
2018-07-30T11:46:05.757Z,1010.32
2018-07-30T11:47:05.768Z,1010.30
2018-07-30T11:48:05.776Z,1010.35
2018-07-30T11:49:05.786Z,1010.31
2018-07-30T11:50:05.790Z,1010.24
2018-07-30T11:51:05.797Z,1010.23
2018-07-30T11:52:06.008Z,1010.24
2018-07-30T11:53:05.827Z,1010.22
2018-07-30T11:54:05.858Z,1010.26
2018-07-30T11:55:05.829Z,1010.24
2018-07-30T11:56:05.836Z,1010.24
2018-07-30T11:57:06.048Z,1010.24
2018-07-30T11:58:05.864Z,1010.24
2018-07-30T11:59:05.864Z,1010.25
2018-07-30T12:00:05.870Z,1010.27
2018-07-30T12:01:06.012Z,1010.27
2018-07-30T12:02:05.904Z,1010.27
2018-07-30T12:03:05.893Z,1010.32
2018-07-30T12:04:05.918Z,1010.33
2018-07-30T12:05:05.906Z,1010.30
2018-07-30T12:06:06.116Z,1010.28